Time;durP1;ratioP1;P1;durP2;ratioP2;P2;SDS_P1;SDS_P2;PMS_P1;PMS_P2;Temp;Humidity;BMP_temperature;BMP_pressure;BME280_temperature;BME280_humidity;BME280_pressure;Samples;Min_cycle;Max_cycle;Signal;HPM_P1;HPM_P2
2023/01/01 00:00:06;;;;;;;26.70;21.47;;;15.40;99.90;;;;;;5030607;28;20179;-73
2023/01/01 00:02:32;;;;;;;24.67;19.90;;;15.40;99.90;;;;;;5030012;28;20176;-74
2023/01/01 00:04:57;;;;;;;25.77;19.70;;;15.40;99.90;;;;;;5029492;28;20512;-72
2023/01/01 00:07:23;;;;;;;23.93;17.73;;;15.40;99.90;;;;;;5030026;28;20953;-76
2023/01/01 00:12:33;;;;;;;18.90;13.30;;;15.50;99.90;;;;;;5030956;28;20198;-73
2023/01/01 00:14:58;;;;;;;17.33;13.30;;;15.40;99.90;;;;;;5014289;28;20411;-73
2023/01/01 00:17:24;;;;;;;16.97;13.43;;;15.30;99.90;;;;;;5031959;28;20287;-73
2023/01/01 00:19:50;;;;;;;15.27;13.77;;;15.30;99.90;;;;;;5034667;28;20182;-72
2023/01/01 00:22:16;;;;;;;17.03;12.33;;;15.40;99.90;;;;;;5033939;28;20177;-72
2023/01/01 00:24:42;;;;;;;19.17;16.37;;;15.50;99.90;;;;;;5034227;28;20172;-72
2023/01/01 00:27:08;;;;;;;36.53;26.10;;;15.40;99.90;;;;;;5032963;28;20999;-73
2023/01/01 00:29:33;;;;;;;19.80;16.43;;;15.40;99.90;;;;;;5033614;28;20207;-75
2023/01/01 00:31:59;;;;;;;15.83;10.77;;;15.40;99.90;;;;;;5032776;28;20187;-74
2023/01/01 00:34:24;;;;;;;13.17;9.13;;;15.40;99.90;;;;;;5033115;28;20169;-71
2023/01/01 00:36:50;;;;;;;9.97;8.90;;;15.40;99.90;;;;;;5032850;28;20195;-71
2023/01/01 00:39:16;;;;;;;11.10;9.30;;;15.40;99.90;;;;;;5033430;28;20273;-71
2023/01/01 00:41:41;;;;;;;13.40;7.93;;;15.40;99.90;;;;;;5035742;28;20180;-74
2023/01/01 00:44:07;;;;;;;9.20;7.90;;;15.40;99.90;;;;;;5020399;28;20194;-72
2023/01/01 00:46:32;;;;;;;12.00;6.73;;;15.30;99.90;;;;;;5015132;28;20225;-71
2023/01/01 00:48:58;;;;;;;16.30;12.40;;;15.50;99.90;;;;;;5032292;28;20541;-70
2023/01/01 00:51:24;;;;;;;9.80;6.43;;;15.40;99.90;;;;;;5032768;28;20224;-71
2023/01/01 00:53:49;;;;;;;12.07;5.50;;;15.30;99.90;;;;;;5033028;28;20266;-73
2023/01/01 00:56:15;;;;;;;4.93;4.07;;;15.40;99.90;;;;;;5032314;28;20208;-72
2023/01/01 00:58:40;;;;;;;6.30;4.00;;;15.50;99.90;;;;;;5032671;28;20336;-72
2023/01/01 01:01:06;;;;;;;5.60;4.90;;;15.50;99.90;;;;;;5032568;28;20181;-71
2023/01/01 01:03:32;;;;;;;6.50;5.50;;;15.40;99.90;;;;;;5032604;28;20577;-72
2023/01/01 01:06:01;;;;;;;7.90;3.90;;;15.40;99.90;;;;;;5032715;28;20224;-72
2023/01/01 01:08:28;;;;;;;6.23;4.70;;;15.40;99.90;;;;;;5032120;28;20203;-73
2023/01/01 01:10:55;;;;;;;4.70;4.30;;;15.40;99.90;;;;;;5030329;28;20471;-78
2023/01/01 01:13:21;;;;;;;5.17;3.80;;;15.40;99.90;;;;;;5031848;28;20419;-71
2023/01/01 01:15:47;;;;;;;5.20;3.53;;;15.40;99.90;;;;;;5030596;28;20939;-74
2023/01/01 01:18:12;;;;;;;4.20;3.63;;;15.40;99.90;;;;;;5031536;28;20548;-73
2023/01/01 01:20:38;;;;;;;6.40;3.40;;;15.30;99.90;;;;;;5033601;28;20227;-71
2023/01/01 01:23:04;;;;;;;4.80;3.50;;;15.30;99.90;;;;;;5035370;28;20341;-74
2023/01/01 01:25:30;;;;;;;3.80;3.40;;;15.30;99.90;;;;;;5033809;28;20180;-72
2023/01/01 01:27:56;;;;;;;4.23;3.33;;;15.40;99.90;;;;;;5032180;28;20177;-76
2023/01/01 01:30:21;;;;;;;6.07;4.27;;;15.40;99.90;;;;;;5037813;28;20203;-78
2023/01/01 01:32:47;;;;;;;4.90;3.20;;;15.30;99.90;;;;;;5034045;28;20526;-79
2023/01/01 01:35:12;;;;;;;5.03;3.40;;;15.20;99.90;;;;;;5016889;28;20530;-68
2023/01/01 01:37:38;;;;;;;6.80;3.57;;;15.30;99.90;;;;;;5032032;28;20694;-75
2023/01/01 01:40:04;;;;;;;4.70;3.23;;;15.30;99.90;;;;;;5032044;28;20200;-68
2023/01/01 01:42:30;;;;;;;4.20;3.50;;;15.30;99.90;;;;;;5032076;28;20581;-72
2023/01/01 01:45:00;;;;;;;4.40;3.83;;;15.30;99.90;;;;;;5030717;28;20430;-71
2023/01/01 01:47:29;;;;;;;4.33;3.13;;;15.30;99.90;;;;;;5033158;28;20187;-76
2023/01/01 01:50:18;;;;;;;6.47;3.30;;;15.30;99.90;;;;;;5024508;28;20616;-73
2023/01/01 01:53:00;;;;;;;3.53;3.20;;;15.30;99.90;;;;;;5033175;28;20434;-73
2023/01/01 01:55:28;;;;;;;6.07;3.17;;;15.30;99.90;;;;;;5013999;28;20442;-74
2023/01/01 01:57:54;;;;;;;7.37;4.03;;;15.20;99.90;;;;;;5032671;28;20418;-76
2023/01/01 02:00:20;;;;;;;5.30;3.10;;;15.20;99.90;;;;;;5039032;28;20472;-75
2023/01/01 02:02:52;;;;;;;5.07;3.20;;;15.30;99.90;;;;;;5031870;28;20268;-78
2023/01/01 02:05:20;;;;;;;6.50;3.80;;;15.30;99.90;;;;;;5031374;28;20282;-77
2023/01/01 02:07:46;;;;;;;6.73;4.33;;;15.30;99.90;;;;;;5025690;28;20437;-80
2023/01/01 02:10:12;;;;;;;20.23;15.00;;;15.40;99.90;;;;;;5033491;28;20798;-80
2023/01/01 02:12:37;;;;;;;12.43;8.77;;;15.40;99.90;;;;;;5014373;28;20548;-75
2023/01/01 02:15:04;;;;;;;12.90;6.27;;;15.40;99.90;;;;;;5032517;28;20635;-73
2023/01/01 02:17:34;;;;;;;4.13;3.60;;;15.40;99.90;;;;;;5029834;28;20188;-71
2023/01/01 02:20:00;;;;;;;4.80;3.30;;;15.50;99.90;;;;;;5031645;28;20895;-76
2023/01/01 02:22:55;;;;;;;6.17;4.57;;;15.60;99.90;;;;;;5013743;28;20421;-74
2023/01/01 02:25:33;;;;;;;7.03;3.50;;;15.60;99.90;;;;;;5034783;28;20192;-68
2023/01/01 02:28:31;;;;;;;4.20;3.30;;;15.60;99.90;;;;;;5031604;28;20435;-74
2023/01/01 02:30:58;;;;;;;4.50;3.77;;;15.50;99.90;;;;;;5018402;28;20499;-72
2023/01/01 02:33:26;;;;;;;3.70;3.00;;;15.40;99.90;;;;;;5031034;28;20423;-76
2023/01/01 02:36:01;;;;;;;8.30;3.13;;;15.40;99.90;;;;;;5031530;28;20443;-78
2023/01/01 02:38:49;;;;;;;6.00;3.50;;;15.40;99.90;;;;;;5026512;28;20414;-72
2023/01/01 02:41:38;;;;;;;2.87;2.67;;;15.40;99.90;;;;;;5028857;28;20566;-72
2023/01/01 02:44:03;;;;;;;3.70;3.30;;;15.40;99.90;;;;;;5031226;28;20412;-75
2023/01/01 02:46:33;;;;;;;5.83;3.90;;;15.30;99.90;;;;;;5031391;28;20435;-69
2023/01/01 02:48:59;;;;;;;7.10;4.40;;;15.20;99.90;;;;;;5030701;28;20183;-73
2023/01/01 02:51:37;;;;;;;3.57;3.27;;;15.30;99.90;;;;;;5030598;28;20556;-70
2023/01/01 02:54:18;;;;;;;6.40;3.20;;;15.30;99.90;;;;;;5030287;28;20935;-72
2023/01/01 02:56:47;;;;;;;7.13;4.63;;;15.20;99.90;;;;;;5034385;28;20824;-72
2023/01/01 03:02:44;;;;;;;3.70;3.37;;;15.20;99.90;;;;;;4988102;28;20783;-70
2023/01/01 03:06:21;;;;;;;4.97;3.20;;;15.10;99.90;;;;;;5025792;28;20420;-67
2023/01/01 03:08:38;;;;;;;4.57;3.40;;;15.10;99.90;;;;;;5030419;28;20469;-72
2023/01/01 03:11:08;;;;;;;4.77;3.17;;;15.10;99.90;;;;;;5032008;28;20577;-72
2023/01/01 03:13:37;;;;;;;6.30;4.03;;;15.00;99.90;;;;;;5030565;28;20415;-69
2023/01/01 03:16:13;;;;;;;7.30;3.80;;;15.00;99.90;;;;;;5030681;28;20438;-72
2023/01/01 03:18:44;;;;;;;6.83;3.47;;;15.10;99.90;;;;;;5030591;28;20425;-73
2023/01/01 03:21:12;;;;;;;3.70;2.70;;;15.10;99.90;;;;;;5030951;28;20407;-72
2023/01/01 03:23:45;;;;;;;5.07;2.93;;;15.10;99.90;;;;;;5028741;28;20520;-72
2023/01/01 03:26:13;;;;;;;69.37;42.63;;;15.00;99.90;;;;;;5023283;28;20440;-69
2023/01/01 03:28:56;;;;;;;5.90;4.30;;;15.00;99.90;;;;;;5032814;28;20566;-77
2023/01/01 03:31:24;;;;;;;3.90;3.00;;;15.10;99.90;;;;;;5026318;28;20535;-73
2023/01/01 03:34:02;;;;;;;6.90;3.77;;;15.10;99.90;;;;;;5030168;28;20414;-71
2023/01/01 03:36:34;;;;;;;7.07;3.30;;;15.10;99.90;;;;;;5030811;28;20437;-70
2023/01/01 03:39:10;;;;;;;4.40;3.70;;;15.00;99.90;;;;;;5029974;28;20418;-73
2023/01/01 03:42:06;;;;;;;3.90;3.10;;;15.10;99.90;;;;;;5030747;28;20412;-73
2023/01/01 03:44:34;;;;;;;4.97;2.67;;;15.20;99.90;;;;;;5029956;28;20457;-69
2023/01/01 03:47:00;;;;;;;5.93;3.40;;;15.20;99.90;;;;;;5029990;28;21004;-74
2023/01/01 03:49:26;;;;;;;6.40;3.83;;;15.10;99.90;;;;;;5011969;28;20421;-76
2023/01/01 03:52:20;;;;;;;3.80;2.60;;;15.10;99.90;;;;;;5022493;28;20414;-74
2023/01/01 03:55:01;;;;;;;4.40;3.40;;;15.00;99.90;;;;;;5031973;28;20421;-77
2023/01/01 03:57:50;;;;;;;5.00;3.30;;;15.10;99.90;;;;;;5031446;28;20836;-70
2023/01/01 04:00:19;;;;;;;7.17;3.60;;;15.00;99.90;;;;;;5006193;28;20415;-72
2023/01/01 04:02:59;;;;;;;3.07;2.80;;;15.00;99.90;;;;;;5025746;28;20414;-71
2023/01/01 04:05:26;;;;;;;4.20;3.20;;;14.90;99.90;;;;;;5029737;28;20445;-75
2023/01/01 04:07:53;;;;;;;8.83;5.17;;;14.90;99.90;;;;;;5029973;28;20421;-74
2023/01/01 04:10:20;;;;;;;16.50;11.40;;;14.90;99.90;;;;;;5030939;28;20972;-75
2023/01/01 04:12:55;;;;;;;4.60;2.90;;;14.90;99.90;;;;;;5030539;28;20402;-73
2023/01/01 04:15:24;;;;;;;5.43;3.90;;;14.90;99.90;;;;;;5029959;28;20425;-76
2023/01/01 04:17:50;;;;;;;4.23;3.83;;;14.90;99.90;;;;;;5031026;28;20410;-72
2023/01/01 04:20:16;;;;;;;5.37;3.93;;;14.90;99.90;;;;;;5036708;28;20534;-74
2023/01/01 04:22:42;;;;;;;4.00;2.73;;;14.90;99.90;;;;;;5012494;28;20443;-73
2023/01/01 04:25:09;;;;;;;6.40;3.20;;;15.00;99.90;;;;;;5030407;28;20455;-71
2023/01/01 04:27:35;;;;;;;9.50;3.17;;;15.00;99.90;;;;;;5030024;28;20188;-76
2023/01/01 04:30:01;;;;;;;4.13;3.00;;;15.00;99.90;;;;;;5017233;28;20560;-79
2023/01/01 04:32:28;;;;;;;6.10;2.80;;;15.00;99.90;;;;;;5030304;28;20501;-73
2023/01/01 04:34:53;;;;;;;12.97;4.03;;;15.00;99.90;;;;;;5028638;28;20845;-77
2023/01/01 04:37:19;;;;;;;3.43;3.13;;;14.90;99.90;;;;;;5011771;28;20440;-73
2023/01/01 04:39:45;;;;;;;6.57;4.30;;;14.90;99.90;;;;;;5031072;28;20613;-78
2023/01/01 04:42:10;;;;;;;11.97;4.80;;;14.80;99.90;;;;;;5031113;28;20171;-76
2023/01/01 04:44:36;;;;;;;2.97;2.77;;;14.70;99.90;;;;;;5036030;28;20639;-76
2023/01/01 04:47:01;;;;;;;4.57;3.00;;;14.80;99.90;;;;;;5031585;28;20698;-73
2023/01/01 04:49:27;;;;;;;6.73;3.90;;;14.80;99.90;;;;;;5029819;28;20183;-77
2023/01/01 04:51:53;;;;;;;4.00;3.20;;;14.80;99.90;;;;;;5032454;28;20277;-77
2023/01/01 04:54:18;;;;;;;5.00;3.73;;;14.70;99.90;;;;;;5031753;28;20210;-74
2023/01/01 04:56:44;;;;;;;10.63;3.27;;;14.70;99.90;;;;;;5023597;28;20504;-76
2023/01/01 04:59:09;;;;;;;4.13;3.10;;;14.70;99.90;;;;;;5031048;28;20561;-79
2023/01/01 05:01:35;;;;;;;7.57;4.07;;;14.70;99.90;;;;;;5032093;28;20552;-77
2023/01/01 05:04:00;;;;;;;4.73;3.00;;;14.70;99.90;;;;;;5033744;28;20204;-73
2023/01/01 05:06:27;;;;;;;3.93;3.17;;;14.70;99.90;;;;;;5033735;28;20195;-76
2023/01/01 05:08:54;;;;;;;6.43;4.10;;;14.70;99.90;;;;;;5037164;28;20541;-74
2023/01/01 05:11:22;;;;;;;4.27;3.57;;;14.70;99.90;;;;;;5034137;28;20454;-73
2023/01/01 05:13:51;;;;;;;3.90;2.67;;;14.70;99.90;;;;;;5033478;28;20406;-74
2023/01/01 05:16:21;;;;;;;4.97;3.40;;;14.70;99.90;;;;;;5025729;28;20430;-71
2023/01/01 05:18:47;;;;;;;6.70;3.17;;;14.70;99.90;;;;;;5032267;28;20757;-75
2023/01/01 05:21:22;;;;;;;7.40;3.27;;;14.70;99.90;;;;;;5025820;28;20451;-76
2023/01/01 05:23:48;;;;;;;7.00;2.77;;;14.70;99.90;;;;;;5033183;28;20413;-71
2023/01/01 05:26:22;;;;;;;25.47;16.23;;;14.70;99.90;;;;;;5033149;28;20438;-79
2023/01/01 05:28:49;;;;;;;2.97;2.63;;;14.70;99.90;;;;;;5033073;28;20529;-74
2023/01/01 05:31:17;;;;;;;6.07;2.60;;;14.70;99.90;;;;;;5033292;28;20447;-74
2023/01/01 05:33:42;;;;;;;6.20;3.17;;;14.60;99.90;;;;;;5034295;28;20971;-71
2023/01/01 05:36:14;;;;;;;6.70;3.17;;;14.70;99.90;;;;;;5034652;28;20471;-71
2023/01/01 05:38:40;;;;;;;6.10;5.60;;;14.70;99.90;;;;;;5032968;28;20172;-71
2023/01/01 05:41:09;;;;;;;7.20;3.93;;;14.70;99.90;;;;;;5032924;28;20621;-70
2023/01/01 05:43:36;;;;;;;5.13;3.07;;;14.70;99.90;;;;;;5033182;28;20184;-70
2023/01/01 05:46:07;;;;;;;4.47;2.40;;;14.60;99.90;;;;;;5033104;28;20517;-70
2023/01/01 05:48:36;;;;;;;5.50;2.37;;;14.60;99.90;;;;;;5035476;28;20414;-79
2023/01/01 05:51:04;;;;;;;5.43;3.17;;;14.60;99.90;;;;;;5019966;28;20469;-70
2023/01/01 05:53:30;;;;;;;5.20;2.93;;;14.60;99.90;;;;;;5033324;28;20548;-77
2023/01/01 05:55:56;;;;;;;3.73;2.87;;;14.60;99.90;;;;;;5032921;28;20870;-71
2023/01/01 05:58:22;;;;;;;4.37;2.57;;;14.60;99.90;;;;;;5019030;28;20912;-75
2023/01/01 06:00:47;;;;;;;5.80;3.60;;;14.60;99.90;;;;;;5032584;28;20488;-70
2023/01/01 06:03:13;;;;;;;5.43;2.43;;;14.60;99.90;;;;;;5032680;28;20180;-72
2023/01/01 06:05:38;;;;;;;11.90;8.00;;;14.60;99.90;;;;;;5014864;28;20186;-73
2023/01/01 06:08:04;;;;;;;4.30;2.57;;;14.70;99.90;;;;;;5032536;28;20175;-74
2023/01/01 06:10:30;;;;;;;5.17;2.80;;;14.60;99.90;;;;;;5033692;28;20655;-74
2023/01/01 06:12:58;;;;;;;5.00;3.53;;;14.60;99.90;;;;;;5033042;28;20176;-71
2023/01/01 06:15:24;;;;;;;3.80;2.50;;;14.60;99.90;;;;;;5032191;28;20221;-73
2023/01/01 06:17:50;;;;;;;3.50;2.57;;;14.60;99.90;;;;;;5032056;28;20780;-71
2023/01/01 06:20:16;;;;;;;4.87;2.80;;;14.50;99.90;;;;;;5031866;28;20493;-69
2023/01/01 06:22:41;;;;;;;3.40;2.30;;;14.50;99.90;;;;;;5014190;28;20255;-70
2023/01/01 06:25:08;;;;;;;4.23;2.20;;;14.60;99.90;;;;;;5032046;28;20422;-68
2023/01/01 06:27:37;;;;;;;3.90;2.27;;;14.60;99.90;;;;;;5031849;28;20199;-72
2023/01/01 06:30:04;;;;;;;4.73;1.87;;;14.60;99.90;;;;;;5031800;28;20461;-71
2023/01/01 06:32:30;;;;;;;4.10;2.23;;;14.60;99.90;;;;;;5031919;28;20505;-72
2023/01/01 06:34:55;;;;;;;4.33;1.93;;;14.60;99.90;;;;;;5032029;28;20526;-71
2023/01/01 06:37:21;;;;;;;5.17;2.33;;;14.60;99.90;;;;;;5031844;28;20198;-73
2023/01/01 06:39:47;;;;;;;3.00;2.27;;;14.60;99.90;;;;;;5031579;28;20191;-70
2023/01/01 06:42:12;;;;;;;8.00;2.83;;;14.60;99.90;;;;;;5031579;28;20187;-72
2023/01/01 06:44:38;;;;;;;3.33;2.60;;;14.60;99.90;;;;;;5031405;28;20194;-71
2023/01/01 06:47:04;;;;;;;3.37;2.20;;;14.50;99.90;;;;;;5031203;28;20275;-72
2023/01/01 06:49:29;;;;;;;2.27;2.07;;;14.60;99.90;;;;;;5031478;28;20263;-71
2023/01/01 06:51:55;;;;;;;4.20;2.43;;;14.60;99.90;;;;;;5031774;28;20184;-69
2023/01/01 06:54:20;;;;;;;3.03;2.07;;;14.60;99.90;;;;;;5031818;28;20194;-74
2023/01/01 06:56:46;;;;;;;3.97;2.60;;;14.50;99.90;;;;;;5013437;28;20252;-72
2023/01/01 06:59:12;;;;;;;4.57;2.30;;;14.60;99.90;;;;;;5032519;28;20695;-73
2023/01/01 07:01:41;;;;;;;4.37;2.70;;;14.60;99.90;;;;;;5031386;28;20178;-73
2023/01/01 07:04:10;;;;;;;3.60;1.97;;;14.50;99.90;;;;;;5023253;28;20182;-71
2023/01/01 07:06:36;;;;;;;3.53;2.90;;;14.60;99.90;;;;;;5030811;28;20428;-71
2023/01/01 07:09:03;;;;;;;5.30;3.20;;;14.60;99.90;;;;;;5023998;28;20787;-71
2023/01/01 07:11:29;;;;;;;2.30;1.93;;;14.60;99.90;;;;;;5030730;28;20482;-71
2023/01/01 07:13:55;;;;;;;3.53;2.30;;;14.60;99.90;;;;;;5031012;28;20761;-71
2023/01/01 07:16:22;;;;;;;4.30;2.70;;;14.60;99.90;;;;;;5030574;28;20546;-71
2023/01/01 07:18:49;;;;;;;2.93;2.60;;;14.60;99.90;;;;;;5028523;28;20168;-72
2023/01/01 07:21:32;;;;;;;2.30;2.10;;;14.60;99.90;;;;;;5031017;28;20788;-72
2023/01/01 07:24:01;;;;;;;6.50;3.07;;;14.50;99.90;;;;;;5029581;28;20437;-69
2023/01/01 07:26:28;;;;;;;4.20;2.37;;;14.60;99.90;;;;;;5029963;28;20866;-69
2023/01/01 07:28:54;;;;;;;4.00;2.87;;;14.60;99.90;;;;;;5030072;28;20498;-71
2023/01/01 07:31:20;;;;;;;2.70;2.00;;;14.70;99.90;;;;;;5030416;28;20898;-70
2023/01/01 07:33:46;;;;;;;3.30;2.67;;;14.70;99.90;;;;;;5027831;28;20204;-72
2023/01/01 07:36:11;;;;;;;3.20;2.40;;;14.70;99.90;;;;;;5030472;28;20469;-77
2023/01/01 07:38:37;;;;;;;2.53;2.33;;;14.70;99.90;;;;;;5030384;28;20168;-73
2023/01/01 07:41:03;;;;;;;4.30;2.57;;;14.60;99.90;;;;;;5026990;28;20489;-71
2023/01/01 07:43:28;;;;;;;4.93;3.17;;;14.60;99.90;;;;;;5019989;28;20172;-72
2023/01/01 07:45:54;;;;;;;3.00;2.33;;;14.60;99.90;;;;;;5015224;28;20212;-71
2023/01/01 07:48:19;;;;;;;3.63;2.23;;;14.70;99.90;;;;;;5030406;28;20179;-73
2023/01/01 07:50:45;;;;;;;3.10;2.40;;;14.80;99.90;;;;;;5030115;28;20359;-75
2023/01/01 07:53:11;;;;;;;6.37;3.47;;;14.80;99.90;;;;;;5030340;28;20219;-73
2023/01/01 07:55:37;;;;;;;5.10;3.47;;;14.80;99.90;;;;;;5030439;28;20278;-72
2023/01/01 07:58:02;;;;;;;6.97;3.23;;;14.80;99.90;;;;;;5030126;28;20179;-74
2023/01/01 08:00:28;;;;;;;3.97;3.07;;;14.80;99.90;;;;;;5030338;28;20176;-78
2023/01/01 08:02:54;;;;;;;6.67;3.23;;;14.80;99.90;;;;;;5033391;28;20180;-80
2023/01/01 08:05:20;;;;;;;7.03;3.30;;;14.80;99.90;;;;;;5031941;28;20538;-77
2023/01/01 08:07:47;;;;;;;4.00;2.93;;;14.70;99.90;;;;;;5031371;28;20518;-75
2023/01/01 08:10:13;;;;;;;9.57;3.10;;;14.80;99.90;;;;;;5033802;28;20579;-79
2023/01/01 08:12:39;;;;;;;9.60;2.73;;;14.80;99.90;;;;;;5034315;28;20419;-74
2023/01/01 08:15:05;;;;;;;8.17;2.70;;;14.80;99.90;;;;;;5034102;28;20893;-77
2023/01/01 08:17:30;;;;;;;9.93;5.80;;;14.80;99.90;;;;;;5033647;28;20295;-75
2023/01/01 08:19:56;;;;;;;5.87;3.77;;;14.90;99.90;;;;;;5033659;28;20458;-72
2023/01/01 08:22:21;;;;;;;4.43;2.63;;;14.90;99.90;;;;;;5035556;28;20255;-80
2023/01/01 08:24:47;;;;;;;3.10;2.80;;;14.90;99.90;;;;;;5031450;28;20179;-77
2023/01/01 08:27:14;;;;;;;3.90;2.77;;;14.90;99.90;;;;;;5033492;28;20196;-74
2023/01/01 08:29:39;;;;;;;6.63;4.93;;;14.90;99.90;;;;;;5030600;28;20188;-73
2023/01/01 08:32:05;;;;;;;3.33;2.93;;;14.90;99.90;;;;;;5030112;28;20414;-73
2023/01/01 08:34:31;;;;;;;3.97;2.70;;;14.90;99.90;;;;;;5030148;28;20172;-71
2023/01/01 08:36:56;;;;;;;6.23;3.07;;;15.00;99.90;;;;;;5030374;28;20584;-71
2023/01/01 08:39:22;;;;;;;6.20;5.60;;;15.00;99.90;;;;;;5029991;28;20173;-72
2023/01/01 08:41:48;;;;;;;3.87;3.40;;;15.00;99.90;;;;;;5018549;28;20185;-70
2023/01/01 08:44:13;;;;;;;4.37;3.10;;;15.00;99.90;;;;;;5035113;28;20297;-79
2023/01/01 08:46:39;;;;;;;6.63;4.93;;;15.00;99.90;;;;;;5038320;28;20222;-74
2023/01/01 08:49:04;;;;;;;7.40;3.87;;;15.00;99.90;;;;;;5033986;28;20179;-73
2023/01/01 08:51:30;;;;;;;5.03;2.90;;;15.00;99.90;;;;;;5034549;28;20221;-69
2023/01/01 08:53:55;;;;;;;8.77;5.83;;;15.10;99.90;;;;;;5016142;28;20183;-71
2023/01/01 08:56:21;;;;;;;4.10;2.37;;;15.10;99.90;;;;;;5033423;28;20219;-71
2023/01/01 08:58:48;;;;;;;4.00;2.93;;;15.10;99.90;;;;;;5033403;28;20178;-70
2023/01/01 09:01:13;;;;;;;5.70;3.40;;;15.10;99.90;;;;;;5033548;28;20205;-70
2023/01/01 09:03:39;;;;;;;3.40;2.70;;;15.10;99.90;;;;;;5033465;28;20415;-72
2023/01/01 09:06:05;;;;;;;6.50;3.23;;;15.10;99.90;;;;;;5033252;28;20609;-72
2023/01/01 09:08:31;;;;;;;4.17;2.90;;;15.10;99.90;;;;;;5033885;28;20284;-70
2023/01/01 09:10:59;;;;;;;4.17;2.47;;;15.10;99.90;;;;;;5032728;28;20200;-70
2023/01/01 09:13:25;;;;;;;3.10;2.47;;;15.10;99.90;;;;;;5033180;28;20410;-72
2023/01/01 09:15:50;;;;;;;4.10;2.97;;;15.10;99.90;;;;;;5032668;28;20957;-71
2023/01/01 09:18:16;;;;;;;4.40;2.90;;;15.10;99.90;;;;;;5032966;28;20308;-71
2023/01/01 09:20:42;;;;;;;5.60;2.97;;;15.10;99.90;;;;;;5032998;28;20416;-71
2023/01/01 09:23:08;;;;;;;3.40;2.70;;;15.10;99.90;;;;;;5032635;28;20185;-70
2023/01/01 09:25:34;;;;;;;5.53;3.10;;;15.20;99.90;;;;;;5032627;28;20658;-70
2023/01/01 09:28:08;;;;;;;5.50;2.63;;;15.20;99.90;;;;;;5032695;28;20678;-71
2023/01/01 09:30:34;;;;;;;5.80;3.33;;;15.10;99.90;;;;;;5032822;28;20461;-72
2023/01/01 09:33:01;;;;;;;3.27;2.53;;;15.10;99.90;;;;;;5032817;28;20430;-70
2023/01/01 09:35:26;;;;;;;6.40;2.87;;;15.20;99.90;;;;;;5032542;28;20407;-70
2023/01/01 09:37:52;;;;;;;4.50;2.80;;;15.20;99.90;;;;;;5032363;28;20925;-70
2023/01/01 09:40:42;;;;;;;3.67;2.50;;;15.30;99.90;;;;;;5032618;28;20260;-70
2023/01/01 09:43:16;;;;;;;4.13;2.70;;;15.30;99.90;;;;;;5014709;28;20272;-71
2023/01/01 09:45:59;;;;;;;6.83;5.60;;;15.30;99.90;;;;;;5032431;28;20415;-73
2023/01/01 09:48:28;;;;;;;3.43;2.97;;;15.40;99.90;;;;;;5020579;28;20412;-69
2023/01/01 09:50:53;;;;;;;5.43;3.87;;;15.50;99.90;;;;;;5032213;28;20458;-70
2023/01/01 09:53:33;;;;;;;3.57;2.67;;;15.50;99.90;;;;;;5032458;28;20451;-70
2023/01/01 09:56:04;;;;;;;10.77;7.07;;;15.50;99.90;;;;;;5032146;28;20215;-71
2023/01/01 09:58:35;;;;;;;5.63;3.47;;;15.60;99.90;;;;;;5024772;28;20402;-73
2023/01/01 10:01:18;;;;;;;13.63;10.27;;;15.60;99.90;;;;;;5033289;28;20510;-73
2023/01/01 10:03:55;;;;;;;6.30;3.77;;;15.60;99.90;;;;;;5029201;28;20408;-76
2023/01/01 10:06:27;;;;;;;4.50;4.03;;;15.60;99.90;;;;;;5032112;28;20780;-71
2023/01/01 10:09:10;;;;;;;2.77;2.50;;;15.60;99.90;;;;;;5015155;28;20427;-71
2023/01/01 10:11:48;;;;;;;3.47;2.70;;;15.60;99.90;;;;;;5031998;28;20460;-70
2023/01/01 10:14:37;;;;;;;4.00;2.80;;;15.60;99.90;;;;;;5024989;28;20407;-70
2023/01/01 10:17:23;;;;;;;6.23;3.90;;;15.70;99.90;;;;;;5031648;28;20559;-69
2023/01/01 10:19:57;;;;;;;3.70;2.77;;;15.80;99.90;;;;;;5015780;28;20457;-70
2023/01/01 10:22:29;;;;;;;8.57;5.17;;;15.80;99.90;;;;;;5036802;28;20414;-69
2023/01/01 10:24:57;;;;;;;4.90;3.17;;;15.80;99.90;;;;;;5039714;28;20419;-69
2023/01/01 10:27:46;;;;;;;5.27;2.83;;;15.80;99.90;;;;;;5031748;28;20878;-70
2023/01/01 10:30:17;;;;;;;3.33;2.97;;;15.80;99.90;;;;;;5031476;28;20979;-69
2023/01/01 10:32:49;;;;;;;2.30;2.00;;;15.80;99.90;;;;;;5032077;28;20416;-67
2023/01/01 10:35:21;;;;;;;4.20;3.10;;;15.80;99.90;;;;;;5029734;28;20412;-68
2023/01/01 10:37:48;;;;;;;2.53;2.07;;;15.80;99.90;;;;;;5028711;28;20531;-67
2023/01/01 10:40:22;;;;;;;5.97;3.90;;;15.80;99.90;;;;;;5025159;28;20411;-68
2023/01/01 10:42:50;;;;;;;4.77;3.53;;;15.90;99.90;;;;;;5031190;28;20903;-69
2023/01/01 10:45:33;;;;;;;4.00;3.00;;;15.80;99.90;;;;;;5031266;28;20429;-70
2023/01/01 10:48:17;;;;;;;4.27;2.80;;;15.80;99.90;;;;;;5031153;28;21009;-69
2023/01/01 10:50:53;;;;;;;3.50;2.60;;;15.80;99.90;;;;;;5023037;28;20599;-70
2023/01/01 10:53:26;;;;;;;3.50;2.27;;;15.80;99.90;;;;;;5027082;28;20415;-70
2023/01/01 10:56:07;;;;;;;3.20;2.90;;;15.90;99.90;;;;;;5030790;28;20455;-70
2023/01/01 10:58:37;;;;;;;8.53;4.43;;;15.80;99.90;;;;;;5026350;28;20412;-68
2023/01/01 11:01:05;;;;;;;11.90;4.90;;;15.90;99.90;;;;;;5030071;28;20466;-70
2023/01/01 11:03:31;;;;;;;6.70;4.37;;;15.90;99.90;;;;;;5026681;28;20974;-68
2023/01/01 11:06:02;;;;;;;10.90;4.00;;;15.90;99.90;;;;;;5032058;28;20436;-69
2023/01/01 11:08:30;;;;;;;9.13;5.70;;;15.90;99.90;;;;;;5033505;28;20181;-69
2023/01/01 11:10:59;;;;;;;2.87;2.40;;;15.90;99.90;;;;;;5031325;28;20805;-70
2023/01/01 11:13:26;;;;;;;2.13;1.90;;;15.90;99.90;;;;;;5031457;28;20501;-78
2023/01/01 11:15:52;;;;;;;7.00;4.03;;;15.90;99.90;;;;;;5030816;28;20458;-75
2023/01/01 11:18:22;;;;;;;2.23;2.00;;;15.90;99.90;;;;;;5031741;28;20498;-73
2023/01/01 11:20:54;;;;;;;3.90;2.67;;;15.90;99.90;;;;;;5031775;28;20792;-73
2023/01/01 11:23:33;;;;;;;3.10;2.30;;;16.00;99.90;;;;;;5013712;28;20443;-74
2023/01/01 11:26:23;;;;;;;5.47;2.90;;;16.00;99.90;;;;;;5013060;28;20458;-71
2023/01/01 11:29:16;;;;;;;2.73;2.10;;;16.00;99.90;;;;;;5029409;28;20417;-71
2023/01/01 11:31:45;;;;;;;6.17;4.00;;;15.90;99.90;;;;;;5031029;28;20463;-70
2023/01/01 11:34:38;;;;;;;3.37;2.20;;;15.90;99.90;;;;;;5023487;28;20427;-71
2023/01/01 11:37:22;;;;;;;4.60;2.43;;;15.90;99.90;;;;;;5032133;28;20824;-72
2023/01/01 11:39:50;;;;;;;3.77;1.93;;;15.90;99.90;;;;;;5029161;28;20515;-68
2023/01/01 11:42:18;;;;;;;1.87;1.77;;;16.00;99.90;;;;;;5030911;28;20882;-67
2023/01/01 11:44:48;;;;;;;6.13;3.57;;;16.00;99.90;;;;;;5030683;28;20416;-69
2023/01/01 11:47:38;;;;;;;10.67;2.70;;;16.00;99.90;;;;;;5031348;28;20761;-70
2023/01/01 11:50:13;;;;;;;2.80;1.80;;;16.00;99.90;;;;;;5013865;28;20906;-70
2023/01/01 11:52:47;;;;;;;4.53;2.00;;;16.00;99.90;;;;;;5030242;28;20498;-70
2023/01/01 11:55:16;;;;;;;8.10;4.47;;;16.00;99.90;;;;;;5026796;28;20486;-73
2023/01/01 11:58:04;;;;;;;4.07;2.03;;;16.00;99.90;;;;;;5029589;28;20587;-72
2023/01/01 12:00:34;;;;;;;1.93;1.50;;;16.00;99.90;;;;;;5030226;28;20503;-72
2023/01/01 12:03:10;;;;;;;2.30;1.80;;;16.00;99.90;;;;;;5014755;28;20482;-71
2023/01/01 12:05:49;;;;;;;3.70;2.03;;;16.00;99.90;;;;;;5030317;28;20528;-72
2023/01/01 12:08:25;;;;;;;4.27;3.00;;;16.00;99.90;;;;;;5029839;28;20419;-71
2023/01/01 12:10:59;;;;;;;2.60;1.80;;;16.00;99.90;;;;;;5029938;28;20470;-70
2023/01/01 12:13:29;;;;;;;3.50;2.13;;;16.00;99.90;;;;;;5035328;28;20403;-72
2023/01/01 12:16:00;;;;;;;5.47;2.40;;;16.00;99.90;;;;;;5036324;28;20430;-72
2023/01/01 12:18:46;;;;;;;2.50;1.67;;;15.90;99.90;;;;;;5037132;28;20413;-71
2023/01/01 12:21:22;;;;;;;2.50;2.27;;;16.00;99.90;;;;;;5029037;28;20466;-73
2023/01/01 12:23:48;;;;;;;3.10;1.70;;;15.90;99.90;;;;;;5036276;28;20415;-73
2023/01/01 12:26:27;;;;;;;3.53;2.37;;;16.00;99.90;;;;;;5029242;28;20431;-70
2023/01/01 12:28:53;;;;;;;6.17;2.47;;;15.90;99.90;;;;;;5035971;28;20180;-71
2023/01/01 12:31:31;;;;;;;8.30;5.50;;;15.90;99.90;;;;;;5020216;28;20796;-77
2023/01/01 12:34:17;;;;;;;3.03;2.17;;;15.90;99.90;;;;;;5017103;28;20181;-72
2023/01/01 12:37:12;;;;;;;2.40;2.20;;;15.90;99.90;;;;;;5035962;28;20448;-72
2023/01/01 12:40:15;;;;;;;3.27;1.80;;;15.90;99.90;;;;;;5029802;28;20535;-71
2023/01/01 12:43:01;;;;;;;4.80;1.87;;;15.90;99.90;;;;;;5032356;28;20526;-74
2023/01/01 12:46:01;;;;;;;4.73;2.00;;;15.80;99.90;;;;;;5034743;28;20830;-70
2023/01/01 12:48:38;;;;;;;3.27;1.90;;;15.80;99.90;;;;;;5018466;28;20850;-71
2023/01/01 12:51:31;;;;;;;4.67;2.00;;;15.80;99.90;;;;;;5035847;28;20879;-73
2023/01/01 12:54:15;;;;;;;3.40;2.50;;;15.70;99.90;;;;;;5026607;28;20561;-69
2023/01/01 12:56:51;;;;;;;2.23;1.77;;;15.70;99.90;;;;;;5031980;28;20906;-70
2023/01/01 12:59:24;;;;;;;7.20;3.40;;;15.70;99.90;;;;;;5012160;28;20511;-71
2023/01/01 13:01:55;;;;;;;4.77;2.70;;;15.70;99.90;;;;;;5034430;28;20440;-73
2023/01/01 13:04:21;;;;;;;10.07;2.40;;;15.70;99.90;;;;;;5030945;28;20429;-70
2023/01/01 13:06:56;;;;;;;3.27;2.27;;;15.70;99.90;;;;;;5036670;28;20523;-76